ALV weather

Andorra la Vella Heliport
Andorra La Vella, Andorra la Vella, Andorra

Public forecast

Using degrees Celsius for public forecast. Weather courtesy of forecast.io.

METAR (pilot weather report)

Closest report is Pirineus - la Seu d'Urgel Airport, 11.7 nm (21.7 km) SSW. Retrieved 2019/09/22 09:30 UTC (0 seconds ago):

LESU 220930Z VRB01KT 9999 FEW020 SCT040 BKN055 17/14 Q1015

TAF (pilot weather forecast)

Closest forecast is Pirineus - la Seu d'Urgel Airport, 11.7 nm (21.7 km) SSW. Retrieved 2019/09/22 09:00 UTC (6 minutes ago):

TAF LESU 220800Z 2209/2309 VRB04KT 9999 SCT040 TX25/2213Z TN07/2305Z TEMPO 2212/2219 22010KT TEMPO 2209/2216 SHRA FEW030CB